Flight Track Log - Related Links

Times and Time Zones

All times are in EDT time to prevent confusion due to time zone crossing. See the N560HM flight status page for this flight to view local times or setup timezone preferences in your user account.

Time Position Orientation Groundspeed Altitude Reporting Facility
EDT Latitude Longitude Course Direction KTS MPH feet Rate Location/Type
Sun 06:24:11 PM 40.9333 -74.1000 304° West 233 268 4,000  Level New York TRACON
Sun 06:25:11 PM 40.9500 -74.1833 285° West 228 262 6,100 2,050 Climbing New York TRACON
Sun 06:26:11 PM 40.9333 -74.2667 255° West 227 261 8,100 2,000 Climbing New York TRACON
Sun 06:27:17 PM 40.9000 -74.3500 242° Southwest 254 292 10,300 1,600 Climbing New York TRACON
Sun 06:28:00 PM 40.8208 -74.5634 262° West  Level FlightAware Approximate
Sun 06:28:11 PM 40.8833 -74.4333 255° West 275 316 11,300  Level New York TRACON
Sun 06:29:11 PM 40.8500 -74.5333 246° West 267 307 14,600 2,336 Climbing New York TRACON
Sun 06:30:40 PM 40.8292 -74.6489 257° West 271 312 17,100 1,289 Climbing New York Center
Sun 06:31:40 PM 40.8175 -74.7525 262° West 276 318 17,800 1,300 Climbing New York Center
Sun 06:32:40 PM 40.8000 -74.8364 255° West 268 308 19,700 2,700 Climbing New York Center
Sun 06:33:40 PM 40.7819 -74.9339 256° West 268 308 23,200 3,250 Climbing New York Center
Sun 06:34:40 PM 40.7619 -75.0258 254° West 268 308 26,200 2,200 Climbing New York Center
Sun 06:35:40 PM 40.7417 -75.1233 255° West 274 315 27,600 900 Climbing New York Center
Sun 06:36:40 PM 40.7231 -75.2342 258° West 296 341 28,000 200 Climbing New York Center
Sun 06:37:40 PM 40.6997 -75.3533 256° West 321 369 28,000  Level New York Center
Sun 06:38:40 PM 40.6767 -75.4639 255° West 326 375 28,000  Level New York Center
Sun 06:39:40 PM 40.6533 -75.5772 255° West 326 375 28,000  Level New York Center
Sun 06:40:40 PM 40.6297 -75.6931 255° West 326 375 28,000  Level New York Center
Sun 06:41:40 PM 40.6061 -75.8089 255° West 331 381 28,000  Level New York Center
Sun 06:42:40 PM 40.5683 -75.9156 245° Southwest 331 381 28,000  Level New York Center
Sun 06:43:40 PM 40.5217 -76.0239 240° Southwest 336 387 28,000  Level New York Center
Sun 06:44:40 PM 40.4789 -76.1461 245° Southwest 336 387 28,000  Level New York Center
Sun 06:45:40 PM 40.4392 -76.2386 241° Southwest 336 387 28,000  Level New York Center
Sun 06:46:40 PM 40.4008 -76.3444 245° Southwest 336 387 28,000  Level New York Center
Sun 06:47:40 PM 40.3581 -76.4528 243° Southwest 336 387 28,000  Level New York Center
Sun 06:48:40 PM 40.3278 -76.5647 250° West 336 387 28,000  Level New York Center
Sun 06:49:40 PM 40.2992 -76.6767 252° West 330 380 28,000  Level New York Center
Sun 06:50:40 PM 40.2725 -76.7914 253° West 330 380 28,000  Level New York Center
Sun 06:51:40 PM 40.2417 -76.9056 251° West 330 380 28,000  Level New York Center
Sun 06:52:40 PM 40.2125 -77.0228 252° West 335 386 28,000 -200 Level New York Center
Sun 06:53:40 PM 40.1836 -77.1369 252° West 335 386 27,600 -750 Descending New York Center
Sun 06:54:40 PM 40.1544 -77.2483 251° West 335 386 26,500 -950 Descending New York Center
Sun 06:55:40 PM 40.1253 -77.3653 252° West 330 380 25,700 -717 Descending New York Center
Sun 06:57:44 PM 40.0675 -77.5889 251° West 319 367 24,300 -610 Descending Cleveland Center
Sun 06:58:47 PM 40.0392 -77.6981 251° West 319 367 23,800 -480 Descending Cleveland Center
Sun 06:59:49 PM 40.0097 -77.8086 251° West 320 368 23,300 -726 Descending Cleveland Center
Sun 07:00:51 PM 39.9822 -77.9158 252° West 317 365 22,300 -968 Descending Cleveland Center
Sun 07:01:53 PM 39.9719 -78.0258 263° West 314 361 21,300 -1,355 Descending Cleveland Center
Sun 07:02:55 PM 39.9767 -78.1536 273° West 299 344 19,500 -1,705 Descending Cleveland Center
Sun 07:03:21 PM 39.9761 -78.1936 269° West 289 333 18,800 -1,548 Descending Cleveland Center
Sun 07:03:57 PM 39.9789 -78.2564 273° West 289 333 17,900 -1,622 Descending Cleveland Center
Sun 07:03:58 PM 39.9772 -78.2619 249° West 286 329 17,800 -1,475 Descending Cleveland Center
Sun 07:04:58 PM 39.9822 -78.3633 274° West 277 319 16,400 -1,279 Descending Cleveland Center
Sun 07:04:59 PM 39.9819 -78.3517 92° East 285 328 16,500 -1,333 Climbing Cleveland Center
Sun 07:06:01 PM 39.9844 -78.4511 272° West 276 318 15,000 -1,488 Descending Cleveland Center
Sun 07:07:00 PM 40.0022 -78.5647 282° West 273 314 13,500 -1,452 Descending Cleveland Center
Sun 07:07:03 PM 40.0044 -78.5689 305° West 279 321 13,500 -1,100 Level Cleveland Center
Sun 07:08:00 PM 40.0308 -78.6531 292° West 262 302 12,400 -1,065 Descending Cleveland Center
Sun 07:08:05 PM 40.0311 -78.6567 276° West 267 307 12,400 -882 Level Cleveland Center
Sun 07:09:08 PM 40.0589 -78.7450 292° West 266 306 11,400 -1,026 Descending Cleveland Center
Sun 07:10:02 PM 40.0839 -78.8267 292° West 249 287 10,400 -1,065 Descending Cleveland Center
Sun 07:10:10 PM 40.0853 -78.8281 323° Northwest 253 291 10,300 -1,100 Descending Cleveland Center
Sun 07:11:02 PM 40.1089 -78.9067 291° West 238 274 9,300 -968 Descending Cleveland Center
Sun 07:11:12 PM 40.1092 -78.9100 276° West 246 283 9,300 -984 Level Cleveland Center
Sun 07:12:03 PM 40.1356 -78.9922 293° West 237 273 8,300 -1,161 Descending Cleveland Center
Sun 07:12:14 PM 40.1392 -79.0053 290° West 238 274 8,100 -885 Descending Cleveland Center
Sun 07:13:04 PM 40.1583 -79.0719 291° West 238 274 7,400 -774 Descending Cleveland Center
Sun 07:13:16 PM 40.1644 -79.0853 301° West 239 275 7,300 -811 Descending Cleveland Center
Sun 07:14:18 PM 40.1881 -79.1653 291° West 239 275 6,400 -771 Descending Cleveland Center
Sun 07:15:05 PM 40.2078 -79.2319 291° West 240 276 5,900 -484 Descending Cleveland Center
Sun 07:15:20 PM 40.2133 -79.2461 297° West 239 275 5,900  Level Cleveland Center
Sun 07:16:05 PM 40.2325 -79.3122 291° West 244 281 5,900 97 Level Cleveland Center
Sun 07:16:22 PM 40.2383 -79.3308 292° West 239 275 6,000 -197 Climbing Cleveland Center
Sun 07:17:06 PM 40.2586 -79.4008 291° West 240 276 5,700 -290 Descending Cleveland Center
Sun 07:17:24 PM 40.2636 -79.4119 301° West 239 275 5,700 -375 Level Cleveland Center
Sun 07:18:26 PM 40.2878 -79.4925 291° West 239 275 5,200 -339 Descending Cleveland Center
Sun 07:19:28 PM 40.3108 -79.5711 291° West 237 273 5,000 -339 Descending Cleveland Center
Sun 07:20:30 PM 40.3350 -79.6631 289° West 228 262 4,500 -919 Descending Cleveland Center
Sun 07:21:32 PM 40.3408 -79.7400 276° West 218 251 3,100 -726 Descending Cleveland Center
Sun 07:22:34 PM 40.3489 -79.8067 279° West 196 226 3,000 -339 Descending Cleveland Center
Sun 07:23:36 PM 40.3539 -79.8569 277° West 163 188 2,400 -726 Descending Cleveland Center
Sun 07:24:38 PM 40.3547 -79.8992 271° West 137 158 1,500 -581 Descending Cleveland Center
Sun 07:25:40 PM 40.3544 -79.9428 270° West 125 144 1,200 -290 Descending Cleveland Center
Sun 07:27:00 PM 40.3544 -79.9290 123° Southeast  Level Estimated

Login

Don't have an account? Register now (free) for customized features, flight alerts, and more!